createdAt,value
2022-09-07T00:02:33.125Z,10.40
2022-09-07T00:05:03.226Z,9.73
2022-09-07T00:07:33.895Z,9.98
2022-09-07T00:12:33.293Z,14.90
2022-09-07T00:17:36.056Z,11.30
2022-09-07T00:20:09.186Z,12.25
2022-09-07T00:22:41.429Z,14.88
2022-09-07T00:25:11.952Z,12.07
2022-09-07T00:27:42.498Z,12.05
2022-09-07T00:30:13.284Z,13.35
2022-09-07T00:32:43.743Z,12.38
2022-09-07T00:35:13.816Z,14.93
2022-09-07T00:37:44.232Z,15.05
2022-09-07T00:40:14.198Z,12.77
2022-09-07T00:42:44.813Z,19.38
2022-09-07T00:47:57.996Z,14.73
2022-09-07T00:50:34.920Z,14.63
2022-09-07T00:53:29.280Z,10.50
2022-09-07T00:56:01.048Z,12.70
2022-09-07T00:58:32.759Z,12.27
2022-09-07T01:01:03.070Z,10.68
2022-09-07T01:03:42.777Z,11.50
2022-09-07T01:06:23.347Z,12.65
2022-09-07T01:08:54.761Z,10.82
2022-09-07T01:11:25.428Z,13.13
2022-09-07T01:13:58.767Z,10.75
2022-09-07T01:17:03.949Z,9.20
2022-09-07T01:19:55.697Z,9.90
2022-09-07T01:22:43.782Z,9.48
2022-09-07T01:25:33.382Z,11.93
2022-09-07T01:28:18.686Z,11.82
2022-09-07T01:31:30.380Z,9.80
2022-09-07T01:36:41.071Z,9.73
2022-09-07T01:39:11.097Z,11.02
2022-09-07T01:42:02.968Z,9.85
2022-09-07T01:44:41.405Z,8.20
2022-09-07T01:47:38.727Z,8.65
2022-09-07T01:50:17.410Z,8.95
2022-09-07T01:53:06.323Z,8.48
2022-09-07T01:55:47.723Z,8.73
2022-09-07T01:58:36.779Z,7.82
2022-09-07T02:01:25.406Z,13.18
2022-09-07T02:04:05.662Z,7.65
2022-09-07T02:06:59.068Z,9.98
2022-09-07T02:09:54.579Z,12.90
2022-09-07T02:12:39.845Z,9.57
2022-09-07T02:15:18.380Z,8.88
2022-09-07T02:17:54.285Z,8.05
2022-09-07T02:20:30.792Z,9.50
2022-09-07T02:23:04.007Z,11.13
2022-09-07T02:25:54.738Z,6.60
2022-09-07T02:28:37.027Z,8.60
2022-09-07T02:31:07.759Z,5.82
2022-09-07T02:33:38.107Z,5.15
2022-09-07T02:36:09.568Z,7.03
2022-09-07T02:38:39.555Z,3.72
2022-09-07T02:41:35.432Z,3.80
2022-09-07T02:44:13.401Z,5.07
2022-09-07T02:47:29.651Z,3.92
2022-09-07T02:50:28.142Z,4.35
2022-09-07T02:53:16.909Z,5.97
2022-09-07T02:55:56.593Z,5.13
2022-09-07T02:58:40.251Z,6.13
2022-09-07T03:04:04.888Z,5.63
2022-09-07T03:06:54.731Z,4.88
2022-09-07T03:09:32.111Z,4.38
2022-09-07T03:12:08.558Z,3.53
2022-09-07T03:14:42.432Z,4.15
2022-09-07T03:17:13.319Z,7.43
2022-09-07T03:19:43.875Z,4.10
2022-09-07T03:22:14.691Z,6.57
2022-09-07T03:27:14.491Z,5.18
2022-09-07T03:29:45.255Z,5.25
2022-09-07T03:32:15.307Z,6.97
2022-09-07T03:34:46.255Z,7.38
2022-09-07T03:37:16.490Z,6.88
2022-09-07T03:39:47.274Z,7.30
2022-09-07T03:44:47.799Z,4.68
2022-09-07T03:47:18.689Z,4.15
2022-09-07T03:49:50.215Z,2.70
2022-09-07T03:52:20.506Z,2.85
2022-09-07T03:54:51.228Z,5.30
2022-09-07T03:57:23.868Z,4.90
2022-09-07T03:59:54.649Z,5.25
2022-09-07T04:04:54.021Z,7.00
2022-09-07T04:07:24.692Z,5.95
2022-09-07T04:09:54.720Z,7.22
2022-09-07T04:12:25.169Z,3.67
2022-09-07T04:14:55.771Z,3.83
2022-09-07T04:17:25.780Z,3.28
2022-09-07T04:19:56.894Z,5.43
2022-09-07T04:22:27.056Z,3.45
2022-09-07T04:24:57.648Z,2.78
2022-09-07T04:27:27.920Z,5.18
2022-09-07T04:29:58.457Z,4.50
2022-09-07T04:32:28.638Z,3.28
2022-09-07T04:35:01.397Z,2.72
2022-09-07T04:37:31.587Z,4.32
2022-09-07T04:40:02.185Z,2.75
2022-09-07T04:42:32.423Z,5.65
2022-09-07T04:45:03.067Z,6.80
2022-09-07T04:47:33.466Z,4.47
2022-09-07T04:50:04.379Z,8.88
2022-09-07T04:52:35.115Z,5.53
2022-09-07T04:55:06.376Z,4.65
2022-09-07T04:57:39.519Z,5.57
2022-09-07T05:00:13.873Z,4.03
2022-09-07T05:02:44.366Z,5.97
2022-09-07T05:05:15.210Z,8.95
2022-09-07T05:10:15.559Z,4.65
2022-09-07T05:12:47.647Z,5.05
2022-09-07T05:15:20.561Z,3.78
2022-09-07T05:17:52.238Z,4.63
2022-09-07T05:20:23.354Z,2.60
2022-09-07T05:23:00.743Z,2.75
2022-09-07T05:25:32.478Z,2.90
2022-09-07T05:28:02.703Z,3.53
2022-09-07T05:36:15.140Z,3.75
2022-09-07T05:38:45.499Z,4.07
2022-09-07T05:41:18.337Z,4.07
2022-09-07T05:46:40.376Z,4.25
2022-09-07T05:49:11.377Z,4.50
2022-09-07T05:51:42.261Z,7.05
2022-09-07T05:54:13.302Z,3.55
2022-09-07T05:56:44.152Z,3.08
2022-09-07T05:59:14.350Z,3.13
2022-09-07T06:01:45.285Z,3.65
2022-09-07T06:04:15.554Z,4.03
2022-09-07T06:06:59.303Z,3.60
2022-09-07T06:12:27.107Z,7.13
2022-09-07T06:14:57.543Z,3.75
2022-09-07T06:17:28.091Z,4.45
2022-09-07T06:19:58.546Z,4.15
2022-09-07T06:22:31.186Z,4.47
2022-09-07T06:25:01.633Z,7.25
2022-09-07T06:27:32.307Z,2.45
2022-09-07T06:30:02.501Z,3.65
2022-09-07T06:32:48.117Z,1.23
2022-09-07T06:35:19.102Z,1.88
2022-09-07T06:37:49.282Z,1.73
2022-09-07T06:40:19.956Z,4.60
2022-09-07T06:45:21.836Z,2.42
2022-09-07T06:47:55.995Z,1.80
2022-09-07T06:50:28.959Z,1.73
2022-09-07T06:55:49.882Z,3.15
2022-09-07T07:00:49.794Z,3.58
2022-09-07T07:03:20.954Z,4.25
2022-09-07T07:05:58.622Z,5.07
2022-09-07T07:08:29.297Z,3.88
2022-09-07T07:11:04.431Z,4.28
2022-09-07T07:13:36.656Z,2.45
2022-09-07T07:16:10.014Z,2.45
2022-09-07T07:18:41.610Z,3.05
2022-09-07T07:21:17.077Z,3.10
2022-09-07T07:23:52.446Z,2.42
2022-09-07T07:26:27.939Z,1.63
2022-09-07T07:31:30.894Z,4.10
2022-09-07T07:34:01.578Z,1.23
2022-09-07T07:36:35.654Z,1.98
2022-09-07T07:39:06.713Z,3.08
2022-09-07T07:44:25.201Z,1.75
2022-09-07T07:46:55.684Z,2.58
2022-09-07T07:49:26.536Z,3.60
2022-09-07T07:54:48.019Z,2.17
2022-09-07T07:57:20.142Z,2.30
2022-09-07T07:59:51.043Z,3.40
2022-09-07T08:02:21.350Z,6.13
2022-09-07T08:04:52.530Z,3.03
2022-09-07T08:07:23.184Z,2.65
2022-09-07T08:09:54.074Z,3.42
2022-09-07T08:12:29.101Z,2.45
2022-09-07T08:15:00.349Z,2.72
2022-09-07T08:17:30.936Z,1.65
2022-09-07T08:20:01.548Z,2.33
2022-09-07T08:22:34.782Z,2.10
2022-09-07T08:25:06.441Z,2.00
2022-09-07T08:27:37.517Z,1.70
2022-09-07T08:30:08.808Z,5.13
2022-09-07T08:32:39.075Z,3.47
2022-09-07T08:35:10.031Z,4.28
2022-09-07T08:37:40.169Z,3.70
2022-09-07T08:40:20.062Z,1.85
2022-09-07T08:42:59.259Z,2.03
2022-09-07T08:45:36.543Z,5.07
2022-09-07T08:48:07.326Z,1.60
2022-09-07T08:50:47.638Z,1.52
2022-09-07T08:53:21.051Z,1.48
2022-09-07T08:56:02.411Z,2.25
2022-09-07T08:58:51.198Z,2.03
2022-09-07T09:01:43.215Z,2.88
2022-09-07T09:04:32.831Z,2.47
2022-09-07T09:07:39.775Z,3.10
2022-09-07T09:10:23.059Z,2.42
2022-09-07T09:13:04.833Z,2.55
2022-09-07T09:15:53.476Z,2.08
2022-09-07T09:18:36.126Z,1.20
2022-09-07T09:21:09.363Z,1.10
2022-09-07T09:23:43.603Z,1.83
2022-09-07T09:26:32.214Z,1.23
2022-09-07T09:29:23.619Z,2.22
2022-09-07T09:34:29.411Z,1.50
2022-09-07T09:37:02.072Z,0.95
2022-09-07T09:39:34.971Z,1.30
2022-09-07T09:42:28.029Z,3.13
2022-09-07T09:45:13.602Z,1.35
2022-09-07T09:47:50.144Z,1.40
2022-09-07T09:53:33.863Z,4.72
2022-09-07T09:56:06.495Z,3.97
2022-09-07T10:04:28.755Z,2.35
2022-09-07T10:07:25.205Z,1.70
2022-09-07T10:09:56.945Z,4.15
2022-09-07T10:12:35.751Z,2.38
2022-09-07T10:15:09.517Z,2.75
2022-09-07T10:17:45.123Z,4.45
2022-09-07T10:20:18.199Z,1.38
2022-09-07T10:23:01.032Z,1.25
2022-09-07T10:25:42.865Z,1.33
2022-09-07T10:28:16.510Z,2.25
2022-09-07T10:31:01.637Z,1.70
2022-09-07T10:37:04.582Z,1.55
2022-09-07T10:39:42.888Z,1.90
2022-09-07T10:42:30.195Z,2.25
2022-09-07T10:45:03.614Z,2.95
2022-09-07T10:47:33.821Z,2.95
2022-09-07T10:50:26.599Z,2.33
2022-09-07T10:52:57.164Z,2.58
2022-09-07T10:55:36.150Z,3.78
2022-09-07T10:58:15.580Z,2.75
2022-09-07T11:00:53.363Z,4.35
2022-09-07T11:03:44.354Z,5.40
2022-09-07T11:06:17.913Z,4.45
2022-09-07T11:12:06.630Z,2.35
2022-09-07T11:14:55.684Z,2.10
2022-09-07T11:17:29.470Z,3.65
2022-09-07T11:20:20.179Z,3.67
2022-09-07T11:23:01.867Z,3.00
2022-09-07T11:25:56.924Z,3.83
2022-09-07T11:29:29.434Z,3.30
2022-09-07T11:32:15.602Z,5.53
2022-09-07T11:34:53.547Z,2.55
2022-09-07T11:37:45.280Z,4.05
2022-09-07T11:40:32.828Z,5.03
2022-09-07T11:43:26.371Z,4.63
2022-09-07T11:46:01.150Z,6.20
2022-09-07T11:48:35.199Z,4.32
2022-09-07T11:51:17.614Z,3.80
2022-09-07T11:53:58.830Z,4.88
2022-09-07T11:56:37.492Z,5.40
2022-09-07T11:59:36.884Z,4.10
2022-09-07T12:02:32.214Z,5.60
2022-09-07T12:05:27.281Z,4.63
2022-09-07T12:08:33.349Z,4.25
2022-09-07T12:11:23.722Z,3.58
2022-09-07T12:13:59.470Z,6.22
2022-09-07T12:16:46.223Z,3.70
2022-09-07T12:19:28.558Z,4.43
2022-09-07T12:22:00.922Z,3.13
2022-09-07T12:24:40.007Z,3.83
2022-09-07T12:27:22.921Z,4.68
2022-09-07T12:30:15.535Z,3.72
2022-09-07T12:32:58.001Z,3.75
2022-09-07T12:35:32.063Z,2.75
2022-09-07T12:38:04.341Z,2.20
2022-09-07T12:40:41.358Z,5.47
2022-09-07T12:43:14.807Z,3.72
2022-09-07T12:45:45.014Z,3.65
2022-09-07T12:48:18.384Z,2.92
2022-09-07T12:50:57.505Z,3.25
2022-09-07T12:53:57.608Z,2.47
2022-09-07T12:56:39.685Z,3.03
2022-09-07T12:59:35.233Z,2.80
2022-09-07T13:02:30.838Z,4.50
2022-09-07T13:05:39.523Z,3.88
2022-09-07T13:08:45.122Z,3.17
2022-09-07T13:11:20.910Z,3.97
2022-09-07T13:14:03.664Z,5.25
2022-09-07T13:19:53.385Z,4.72
2022-09-07T13:22:32.700Z,5.30
2022-09-07T13:25:27.396Z,2.90
2022-09-07T13:28:28.445Z,3.42
2022-09-07T13:31:17.830Z,3.83
2022-09-07T13:33:52.946Z,4.45
2022-09-07T13:36:51.882Z,3.70
2022-09-07T13:39:23.414Z,3.63
2022-09-07T13:41:57.204Z,4.70
2022-09-07T13:44:34.517Z,4.32
2022-09-07T13:47:32.657Z,5.28
2022-09-07T13:50:21.681Z,3.20
2022-09-07T13:53:10.309Z,4.70
2022-09-07T13:56:21.513Z,3.63
2022-09-07T13:58:53.930Z,2.85
2022-09-07T14:01:27.507Z,3.25
2022-09-07T14:04:08.603Z,4.32
2022-09-07T14:06:40.351Z,3.45
2022-09-07T14:09:17.766Z,3.28
2022-09-07T14:11:50.704Z,3.42
2022-09-07T14:14:23.112Z,3.35
2022-09-07T14:17:02.236Z,3.13
2022-09-07T14:19:35.078Z,3.33
2022-09-07T14:22:08.939Z,3.38
2022-09-07T14:24:44.938Z,4.57
2022-09-07T14:27:33.006Z,3.35
2022-09-07T14:30:24.730Z,3.40
2022-09-07T14:33:15.116Z,3.60
2022-09-07T14:35:45.419Z,4.25
2022-09-07T14:39:04.048Z,3.17
2022-09-07T14:41:14.926Z,6.65
2022-09-07T14:44:00.266Z,4.22
2022-09-07T14:46:33.181Z,4.20
2022-09-07T14:49:19.433Z,3.50
2022-09-07T14:51:51.598Z,3.80
2022-09-07T14:54:35.131Z,4.07
2022-09-07T14:57:09.157Z,3.42
2022-09-07T14:59:43.605Z,3.90
2022-09-07T15:02:35.914Z,3.83
2022-09-07T15:05:30.612Z,4.28
2022-09-07T15:08:02.938Z,4.57
2022-09-07T15:10:38.107Z,4.40
2022-09-07T15:13:29.299Z,5.82
2022-09-07T15:16:02.627Z,5.50
2022-09-07T15:19:06.811Z,4.97
2022-09-07T15:21:40.942Z,6.68
2022-09-07T15:24:11.658Z,5.13
2022-09-07T15:29:33.413Z,5.93
2022-09-07T15:32:05.037Z,5.70
2022-09-07T15:34:35.461Z,5.38
2022-09-07T15:38:01.006Z,5.70
2022-09-07T15:39:56.635Z,5.28
2022-09-07T15:45:17.568Z,6.55
2022-09-07T15:47:52.870Z,6.05
2022-09-07T15:50:23.633Z,5.47
2022-09-07T15:52:54.109Z,5.25
2022-09-07T15:55:25.484Z,5.90
2022-09-07T15:58:10.757Z,5.85
2022-09-07T16:00:42.408Z,6.72
2022-09-07T16:03:12.936Z,5.22
2022-09-07T16:05:45.268Z,5.85
2022-09-07T16:11:27.139Z,7.22
2022-09-07T16:14:02.638Z,5.18
2022-09-07T16:19:25.560Z,4.90
2022-09-07T16:21:57.626Z,4.80
2022-09-07T16:24:29.472Z,6.00
2022-09-07T16:26:59.415Z,5.40
2022-09-07T16:29:29.760Z,7.43
2022-09-07T16:34:50.263Z,6.20
2022-09-07T16:37:20.367Z,6.20
2022-09-07T16:39:52.592Z,7.10
2022-09-07T16:42:22.714Z,5.07
2022-09-07T16:44:53.917Z,5.53
2022-09-07T16:47:24.636Z,5.60
2022-09-07T16:49:54.855Z,5.97
2022-09-07T16:52:25.277Z,5.13
2022-09-07T16:54:55.304Z,5.47
2022-09-07T16:57:26.002Z,5.53
2022-09-07T16:59:55.950Z,7.05
2022-09-07T17:02:26.262Z,6.40
2022-09-07T17:04:56.397Z,6.85
2022-09-07T17:07:26.715Z,7.43
2022-09-07T17:09:56.758Z,7.80
2022-09-07T17:12:27.143Z,6.32
2022-09-07T17:14:57.072Z,5.10
2022-09-07T17:17:30.137Z,4.90
2022-09-07T17:20:00.362Z,5.45
2022-09-07T17:22:30.715Z,5.95
2022-09-07T17:25:00.498Z,5.60
2022-09-07T17:27:30.850Z,5.38
2022-09-07T17:30:00.826Z,5.65
2022-09-07T17:32:31.951Z,5.20
2022-09-07T17:35:02.387Z,5.53
2022-09-07T17:37:32.466Z,7.75
2022-09-07T17:40:05.774Z,7.70
2022-09-07T17:45:27.977Z,5.57
2022-09-07T17:47:58.149Z,5.40
2022-09-07T17:50:28.548Z,6.30
2022-09-07T17:52:59.163Z,11.18
2022-09-07T17:55:32.801Z,6.15
2022-09-07T17:58:04.639Z,5.53
2022-09-07T18:00:36.005Z,6.15
2022-09-07T18:03:05.974Z,6.03
2022-09-07T18:05:36.336Z,5.57
2022-09-07T18:08:06.612Z,6.43
2022-09-07T18:13:35.706Z,5.20
2022-09-07T18:16:23.701Z,6.40
2022-09-07T18:18:54.730Z,5.72
2022-09-07T18:21:34.276Z,6.97
2022-09-07T18:24:19.403Z,6.03
2022-09-07T18:26:52.084Z,5.65
2022-09-07T18:29:33.891Z,7.28
2022-09-07T18:32:09.696Z,5.18
2022-09-07T18:34:41.406Z,7.32
2022-09-07T18:37:13.230Z,6.03
2022-09-07T18:39:43.416Z,8.13
2022-09-07T18:42:14.202Z,7.53
2022-09-07T18:47:34.526Z,6.03
2022-09-07T18:50:04.606Z,5.53
2022-09-07T18:55:25.237Z,6.93
2022-09-07T18:57:55.903Z,6.63
2022-09-07T19:00:25.845Z,6.18
2022-09-07T19:02:56.263Z,6.32
2022-09-07T19:08:17.569Z,6.50
2022-09-07T19:10:47.559Z,6.63
2022-09-07T19:13:17.975Z,7.65
2022-09-07T19:15:48.231Z,7.00
2022-09-07T19:18:21.387Z,5.20
2022-09-07T19:20:51.295Z,9.93
2022-09-07T19:23:21.897Z,6.70
2022-09-07T19:25:52.003Z,6.05
2022-09-07T19:28:22.884Z,6.68
2022-09-07T19:30:52.985Z,6.80
2022-09-07T19:33:24.352Z,6.35
2022-09-07T19:35:54.326Z,6.68
2022-09-07T19:38:24.791Z,6.80
2022-09-07T19:41:02.036Z,7.70
2022-09-07T19:43:36.363Z,8.05
2022-09-07T19:46:06.381Z,7.03
2022-09-07T19:48:36.755Z,5.97
2022-09-07T19:51:08.838Z,6.90
2022-09-07T19:53:47.288Z,5.65
2022-09-07T19:56:22.814Z,7.32
2022-09-07T19:58:53.261Z,6.03
2022-09-07T20:01:26.148Z,6.50
2022-09-07T20:04:01.897Z,8.18
2022-09-07T20:06:36.333Z,8.25
2022-09-07T20:09:08.112Z,6.93
2022-09-07T20:11:40.014Z,6.15
2022-09-07T20:14:12.197Z,6.60
2022-09-07T20:16:42.688Z,7.20
2022-09-07T20:19:15.589Z,9.90
2022-09-07T20:21:50.011Z,7.20
2022-09-07T20:24:23.488Z,7.03
2022-09-07T20:26:55.278Z,9.40
2022-09-07T20:29:28.180Z,5.97
2022-09-07T20:32:00.509Z,6.32
2022-09-07T20:34:31.555Z,5.72
2022-09-07T20:37:02.192Z,7.93
2022-09-07T20:39:36.967Z,6.85
2022-09-07T20:42:09.183Z,8.20
2022-09-07T20:44:41.315Z,6.32
2022-09-07T20:47:11.356Z,5.00
2022-09-07T20:49:41.790Z,5.13
2022-09-07T20:54:41.001Z,10.27
2022-09-07T20:57:11.932Z,5.63
2022-09-07T20:59:42.343Z,6.15
2022-09-07T21:02:12.946Z,5.97
2022-09-07T21:04:44.543Z,7.20
2022-09-07T21:07:14.951Z,6.40
2022-09-07T21:12:14.158Z,6.88
2022-09-07T21:14:46.625Z,6.07
2022-09-07T21:17:16.587Z,6.57
2022-09-07T21:19:46.915Z,7.45
2022-09-07T21:22:16.858Z,8.00
2022-09-07T21:24:47.356Z,8.40
2022-09-07T21:27:17.388Z,8.20
2022-09-07T21:29:47.762Z,8.52
2022-09-07T21:32:17.682Z,7.63
2022-09-07T21:34:48.528Z,9.60
2022-09-07T21:37:18.567Z,8.35
2022-09-07T21:39:49.014Z,7.22
2022-09-07T21:42:19.495Z,9.70
2022-09-07T21:47:19.903Z,8.02
2022-09-07T21:49:50.015Z,7.97
2022-09-07T21:52:20.663Z,8.50
2022-09-07T21:54:50.650Z,8.57
2022-09-07T21:57:20.664Z,10.05
2022-09-07T21:59:50.876Z,7.25
2022-09-07T22:02:21.727Z,6.18
2022-09-07T22:04:55.107Z,9.38
2022-09-07T22:09:54.291Z,7.65
2022-09-07T22:12:24.699Z,6.05
2022-09-07T22:14:54.482Z,6.20
2022-09-07T22:17:24.951Z,6.88
2022-09-07T22:19:54.970Z,7.00
2022-09-07T22:22:25.394Z,7.10
2022-09-07T22:27:25.532Z,6.45
2022-09-07T22:29:56.057Z,8.10
2022-09-07T22:32:26.729Z,7.60
2022-09-07T22:34:56.544Z,7.82
2022-09-07T22:37:27.672Z,5.85
2022-09-07T22:39:57.814Z,6.82
2022-09-07T22:42:28.268Z,6.05
2022-09-07T22:47:28.636Z,5.97
2022-09-07T22:49:58.506Z,7.72
2022-09-07T22:52:29.150Z,5.97
2022-09-07T22:57:28.379Z,9.48
2022-09-07T22:59:58.797Z,7.15
2022-09-07T23:02:28.587Z,5.47
2022-09-07T23:04:59.226Z,6.45
2022-09-07T23:07:29.273Z,6.13
2022-09-07T23:09:59.706Z,6.80
2022-09-07T23:12:29.448Z,4.88
2022-09-07T23:14:59.920Z,5.30
2022-09-07T23:19:59.430Z,7.82
2022-09-07T23:22:35.422Z,5.50
2022-09-07T23:25:05.814Z,6.30
2022-09-07T23:27:36.419Z,7.85
2022-09-07T23:30:08.167Z,5.60
2022-09-07T23:32:38.901Z,6.47
2022-09-07T23:35:12.691Z,6.10
2022-09-07T23:37:47.341Z,5.88
2022-09-07T23:40:17.780Z,8.85
2022-09-07T23:42:48.913Z,6.20
2022-09-07T23:45:19.194Z,7.63
2022-09-07T23:47:49.609Z,7.30
2022-09-07T23:50:19.614Z,6.13
2022-09-07T23:52:50.019Z,7.57
2022-09-07T23:55:20.114Z,7.43
2022-09-07T23:57:51.138Z,5.95
